sensor_id;sensor_type;location;lat;lon;timestamp;P1;durP1;ratioP1;P2;durP2;ratioP2
20480;SDS011;10399;50.754;3.366;2023-02-28T00:01:24;12.70;;;5.30;;
20480;SDS011;10399;50.754;3.366;2023-02-28T00:03:52;11.25;;;5.45;;
20480;SDS011;10399;50.754;3.366;2023-02-28T00:06:19;10.43;;;5.60;;
20480;SDS011;10399;50.754;3.366;2023-02-28T00:08:47;11.43;;;5.70;;
20480;SDS011;10399;50.754;3.366;2023-02-28T00:11:15;17.10;;;6.30;;
20480;SDS011;10399;50.754;3.366;2023-02-28T00:13:43;11.35;;;5.68;;
20480;SDS011;10399;50.754;3.366;2023-02-28T00:16:15;9.57;;;5.82;;
20480;SDS011;10399;50.754;3.366;2023-02-28T00:18:44;10.07;;;6.15;;
20480;SDS011;10399;50.754;3.366;2023-02-28T00:21:13;11.38;;;5.90;;
20480;SDS011;10399;50.754;3.366;2023-02-28T00:23:41;17.45;;;5.95;;
20480;SDS011;10399;50.754;3.366;2023-02-28T00:26:10;9.38;;;6.20;;
20480;SDS011;10399;50.754;3.366;2023-02-28T00:28:37;9.93;;;5.85;;
20480;SDS011;10399;50.754;3.366;2023-02-28T00:31:04;11.32;;;6.03;;
20480;SDS011;10399;50.754;3.366;2023-02-28T00:33:32;9.05;;;6.03;;
20480;SDS011;10399;50.754;3.366;2023-02-28T00:36:07;9.45;;;6.03;;
20480;SDS011;10399;50.754;3.366;2023-02-28T00:38:36;15.38;;;6.25;;
20480;SDS011;10399;50.754;3.366;2023-02-28T00:41:04;10.23;;;6.30;;
20480;SDS011;10399;50.754;3.366;2023-02-28T00:43:32;12.45;;;6.72;;
20480;SDS011;10399;50.754;3.366;2023-02-28T00:46:01;12.70;;;6.47;;
20480;SDS011;10399;50.754;3.366;2023-02-28T00:48:28;12.45;;;6.28;;
20480;SDS011;10399;50.754;3.366;2023-02-28T00:50:55;11.30;;;6.28;;
20480;SDS011;10399;50.754;3.366;2023-02-28T00:53:25;12.85;;;6.53;;
20480;SDS011;10399;50.754;3.366;2023-02-28T00:55:52;9.88;;;6.25;;
20480;SDS011;10399;50.754;3.366;2023-02-28T00:58:19;15.18;;;6.45;;
20480;SDS011;10399;50.754;3.366;2023-02-28T01:00:46;12.50;;;7.30;;
20480;SDS011;10399;50.754;3.366;2023-02-28T01:03:17;14.10;;;6.43;;
20480;SDS011;10399;50.754;3.366;2023-02-28T01:05:45;15.80;;;7.03;;
20480;SDS011;10399;50.754;3.366;2023-02-28T01:08:13;12.82;;;6.50;;
20480;SDS011;10399;50.754;3.366;2023-02-28T01:10:40;11.82;;;6.63;;
20480;SDS011;10399;50.754;3.366;2023-02-28T01:13:09;9.98;;;6.68;;
20480;SDS011;10399;50.754;3.366;2023-02-28T01:15:40;12.07;;;6.45;;
20480;SDS011;10399;50.754;3.366;2023-02-28T01:18:12;11.63;;;6.55;;
20480;SDS011;10399;50.754;3.366;2023-02-28T01:20:39;15.43;;;6.57;;
20480;SDS011;10399;50.754;3.366;2023-02-28T01:23:06;15.25;;;6.90;;
20480;SDS011;10399;50.754;3.366;2023-02-28T01:25:36;12.07;;;6.60;;
20480;SDS011;10399;50.754;3.366;2023-02-28T01:28:04;9.85;;;6.72;;
20480;SDS011;10399;50.754;3.366;2023-02-28T01:30:32;11.55;;;6.32;;
20480;SDS011;10399;50.754;3.366;2023-02-28T01:32:59;12.73;;;7.10;;
20480;SDS011;10399;50.754;3.366;2023-02-28T01:35:26;12.45;;;6.13;;
20480;SDS011;10399;50.754;3.366;2023-02-28T01:37:53;10.23;;;6.28;;
20480;SDS011;10399;50.754;3.366;2023-02-28T01:40:20;9.38;;;6.47;;
20480;SDS011;10399;50.754;3.366;2023-02-28T01:42:48;11.57;;;6.68;;
20480;SDS011;10399;50.754;3.366;2023-02-28T01:45:19;12.95;;;6.60;;
20480;SDS011;10399;50.754;3.366;2023-02-28T01:48:02;12.23;;;6.53;;
20480;SDS011;10399;50.754;3.366;2023-02-28T01:50:38;11.60;;;6.22;;
20480;SDS011;10399;50.754;3.366;2023-02-28T01:53:14;11.85;;;7.28;;
20480;SDS011;10399;50.754;3.366;2023-02-28T01:55:46;11.95;;;6.78;;
20480;SDS011;10399;50.754;3.366;2023-02-28T01:58:16;10.18;;;6.53;;
20480;SDS011;10399;50.754;3.366;2023-02-28T02:00:44;11.35;;;6.45;;
20480;SDS011;10399;50.754;3.366;2023-02-28T02:03:12;12.73;;;6.43;;
20480;SDS011;10399;50.754;3.366;2023-02-28T02:05:43;10.73;;;6.78;;
20480;SDS011;10399;50.754;3.366;2023-02-28T02:08:17;9.88;;;6.50;;
20480;SDS011;10399;50.754;3.366;2023-02-28T02:10:54;15.10;;;7.50;;
20480;SDS011;10399;50.754;3.366;2023-02-28T02:27:22;11.63;;;7.28;;
20480;SDS011;10399;50.754;3.366;2023-02-28T02:35:26;10.27;;;7.03;;
20480;SDS011;10399;50.754;3.366;2023-02-28T02:40:36;12.80;;;6.82;;
20480;SDS011;10399;50.754;3.366;2023-02-28T02:43:11;16.02;;;7.22;;
20480;SDS011;10399;50.754;3.366;2023-02-28T02:45:48;13.43;;;7.00;;
20480;SDS011;10399;50.754;3.366;2023-02-28T02:48:28;14.95;;;6.85;;
20480;SDS011;10399;50.754;3.366;2023-02-28T02:51:01;11.40;;;7.63;;
20480;SDS011;10399;50.754;3.366;2023-02-28T02:53:33;12.70;;;7.18;;
20480;SDS011;10399;50.754;3.366;2023-02-28T02:56:04;10.75;;;6.80;;
20480;SDS011;10399;50.754;3.366;2023-02-28T02:58:37;16.50;;;7.47;;
20480;SDS011;10399;50.754;3.366;2023-02-28T03:01:10;10.80;;;7.13;;
20480;SDS011;10399;50.754;3.366;2023-02-28T03:03:44;12.95;;;7.45;;
20480;SDS011;10399;50.754;3.366;2023-02-28T03:06:12;11.73;;;7.15;;
20480;SDS011;10399;50.754;3.366;2023-02-28T03:08:41;15.05;;;7.43;;
20480;SDS011;10399;50.754;3.366;2023-02-28T03:11:11;13.00;;;6.95;;
20480;SDS011;10399;50.754;3.366;2023-02-28T03:13:53;11.43;;;6.85;;
20480;SDS011;10399;50.754;3.366;2023-02-28T03:16:49;12.32;;;7.80;;
20480;SDS011;10399;50.754;3.366;2023-02-28T03:22:40;16.63;;;7.25;;
20480;SDS011;10399;50.754;3.366;2023-02-28T03:25:31;13.90;;;7.78;;
20480;SDS011;10399;50.754;3.366;2023-02-28T03:30:58;13.93;;;7.53;;
20480;SDS011;10399;50.754;3.366;2023-02-28T03:33:32;15.40;;;7.55;;
20480;SDS011;10399;50.754;3.366;2023-02-28T03:36:26;10.80;;;7.43;;
20480;SDS011;10399;50.754;3.366;2023-02-28T03:39:00;15.70;;;7.38;;
20480;SDS011;10399;50.754;3.366;2023-02-28T03:44:32;15.48;;;8.10;;
20480;SDS011;10399;50.754;3.366;2023-02-28T03:47:06;12.40;;;7.68;;
20480;SDS011;10399;50.754;3.366;2023-02-28T03:49:44;12.60;;;7.75;;
20480;SDS011;10399;50.754;3.366;2023-02-28T03:52:17;17.77;;;8.63;;
20480;SDS011;10399;50.754;3.366;2023-02-28T03:54:48;13.82;;;7.70;;
20480;SDS011;10399;50.754;3.366;2023-02-28T03:57:22;13.07;;;7.32;;
20480;SDS011;10399;50.754;3.366;2023-02-28T04:00:06;11.85;;;7.57;;
20480;SDS011;10399;50.754;3.366;2023-02-28T04:02:42;15.68;;;8.13;;
20480;SDS011;10399;50.754;3.366;2023-02-28T04:05:10;13.53;;;7.73;;
20480;SDS011;10399;50.754;3.366;2023-02-28T04:07:37;12.73;;;7.65;;
20480;SDS011;10399;50.754;3.366;2023-02-28T04:10:04;14.52;;;8.52;;
20480;SDS011;10399;50.754;3.366;2023-02-28T04:12:32;14.15;;;7.95;;
20480;SDS011;10399;50.754;3.366;2023-02-28T04:14:58;11.75;;;7.70;;
20480;SDS011;10399;50.754;3.366;2023-02-28T04:17:25;13.65;;;7.78;;
20480;SDS011;10399;50.754;3.366;2023-02-28T04:19:52;17.58;;;8.13;;
20480;SDS011;10399;50.754;3.366;2023-02-28T04:22:22;14.05;;;7.78;;
20480;SDS011;10399;50.754;3.366;2023-02-28T04:24:53;12.55;;;8.68;;
20480;SDS011;10399;50.754;3.366;2023-02-28T04:27:22;15.73;;;8.05;;
20480;SDS011;10399;50.754;3.366;2023-02-28T04:29:49;12.13;;;8.70;;
20480;SDS011;10399;50.754;3.366;2023-02-28T04:32:17;16.95;;;8.13;;
20480;SDS011;10399;50.754;3.366;2023-02-28T04:34:44;17.73;;;8.27;;
20480;SDS011;10399;50.754;3.366;2023-02-28T04:37:11;13.32;;;8.15;;
20480;SDS011;10399;50.754;3.366;2023-02-28T04:39:39;17.17;;;8.02;;
20480;SDS011;10399;50.754;3.366;2023-02-28T04:42:10;13.82;;;7.93;;
20480;SDS011;10399;50.754;3.366;2023-02-28T04:44:37;12.15;;;8.32;;
20480;SDS011;10399;50.754;3.366;2023-02-28T04:47:04;17.55;;;8.55;;
20480;SDS011;10399;50.754;3.366;2023-02-28T04:49:35;14.07;;;8.85;;
20480;SDS011;10399;50.754;3.366;2023-02-28T04:52:02;16.13;;;9.70;;
20480;SDS011;10399;50.754;3.366;2023-02-28T04:54:29;15.27;;;9.27;;
20480;SDS011;10399;50.754;3.366;2023-02-28T04:56:58;16.98;;;9.23;;
20480;SDS011;10399;50.754;3.366;2023-02-28T04:59:27;15.30;;;8.70;;
20480;SDS011;10399;50.754;3.366;2023-02-28T05:01:54;14.85;;;8.88;;
20480;SDS011;10399;50.754;3.366;2023-02-28T05:04:21;14.73;;;9.05;;
20480;SDS011;10399;50.754;3.366;2023-02-28T05:06:48;11.85;;;8.30;;
20480;SDS011;10399;50.754;3.366;2023-02-28T05:09:15;14.98;;;8.73;;
20480;SDS011;10399;50.754;3.366;2023-02-28T05:11:44;24.73;;;8.57;;
20480;SDS011;10399;50.754;3.366;2023-02-28T05:14:12;20.02;;;9.13;;
20480;SDS011;10399;50.754;3.366;2023-02-28T05:16:40;14.90;;;9.15;;
20480;SDS011;10399;50.754;3.366;2023-02-28T05:19:10;14.70;;;8.68;;
20480;SDS011;10399;50.754;3.366;2023-02-28T05:21:41;15.25;;;9.00;;
20480;SDS011;10399;50.754;3.366;2023-02-28T05:24:15;16.23;;;8.50;;
20480;SDS011;10399;50.754;3.366;2023-02-28T05:26:49;15.43;;;8.52;;
20480;SDS011;10399;50.754;3.366;2023-02-28T05:29:20;19.45;;;9.90;;
20480;SDS011;10399;50.754;3.366;2023-02-28T05:31:48;16.75;;;8.90;;
20480;SDS011;10399;50.754;3.366;2023-02-28T05:34:15;16.92;;;8.77;;
20480;SDS011;10399;50.754;3.366;2023-02-28T05:36:45;16.98;;;9.48;;
20480;SDS011;10399;50.754;3.366;2023-02-28T05:39:12;20.05;;;8.85;;
20480;SDS011;10399;50.754;3.366;2023-02-28T05:41:43;13.95;;;9.00;;
20480;SDS011;10399;50.754;3.366;2023-02-28T05:44:10;14.57;;;9.27;;
20480;SDS011;10399;50.754;3.366;2023-02-28T05:46:39;16.60;;;9.23;;
20480;SDS011;10399;50.754;3.366;2023-02-28T05:49:06;19.55;;;8.85;;
20480;SDS011;10399;50.754;3.366;2023-02-28T05:51:33;17.15;;;9.07;;
20480;SDS011;10399;50.754;3.366;2023-02-28T05:54:02;14.85;;;8.40;;
20480;SDS011;10399;50.754;3.366;2023-02-28T05:56:30;19.50;;;9.48;;
20480;SDS011;10399;50.754;3.366;2023-02-28T05:58:57;17.83;;;9.23;;
20480;SDS011;10399;50.754;3.366;2023-02-28T06:01:31;16.45;;;8.63;;
20480;SDS011;10399;50.754;3.366;2023-02-28T06:04:03;15.50;;;8.75;;
20480;SDS011;10399;50.754;3.366;2023-02-28T06:06:32;14.00;;;9.20;;
20480;SDS011;10399;50.754;3.366;2023-02-28T06:09:03;16.55;;;8.65;;
20480;SDS011;10399;50.754;3.366;2023-02-28T06:11:34;17.17;;;9.45;;
20480;SDS011;10399;50.754;3.366;2023-02-28T06:14:03;19.60;;;9.60;;
20480;SDS011;10399;50.754;3.366;2023-02-28T06:16:31;14.85;;;8.85;;
20480;SDS011;10399;50.754;3.366;2023-02-28T06:19:01;18.05;;;9.32;;
20480;SDS011;10399;50.754;3.366;2023-02-28T06:21:30;16.38;;;8.93;;
20480;SDS011;10399;50.754;3.366;2023-02-28T06:23:58;22.23;;;8.93;;
20480;SDS011;10399;50.754;3.366;2023-02-28T06:26:25;16.10;;;9.48;;
20480;SDS011;10399;50.754;3.366;2023-02-28T06:28:53;15.52;;;9.50;;
20480;SDS011;10399;50.754;3.366;2023-02-28T06:31:21;24.92;;;9.25;;
20480;SDS011;10399;50.754;3.366;2023-02-28T06:33:48;13.43;;;8.93;;
20480;SDS011;10399;50.754;3.366;2023-02-28T06:36:17;15.57;;;9.23;;
20480;SDS011;10399;50.754;3.366;2023-02-28T06:38:44;15.73;;;8.90;;
20480;SDS011;10399;50.754;3.366;2023-02-28T06:41:11;19.77;;;9.60;;
20480;SDS011;10399;50.754;3.366;2023-02-28T06:43:39;19.45;;;9.05;;
20480;SDS011;10399;50.754;3.366;2023-02-28T06:46:08;13.70;;;9.10;;
20480;SDS011;10399;50.754;3.366;2023-02-28T06:48:40;15.82;;;9.00;;
20480;SDS011;10399;50.754;3.366;2023-02-28T06:51:13;19.25;;;9.25;;
20480;SDS011;10399;50.754;3.366;2023-02-28T06:53:44;18.13;;;9.20;;
20480;SDS011;10399;50.754;3.366;2023-02-28T06:56:12;18.17;;;9.00;;
20480;SDS011;10399;50.754;3.366;2023-02-28T06:58:40;19.23;;;8.82;;
20480;SDS011;10399;50.754;3.366;2023-02-28T07:01:09;17.08;;;8.50;;
20480;SDS011;10399;50.754;3.366;2023-02-28T07:03:37;15.60;;;9.35;;
20480;SDS011;10399;50.754;3.366;2023-02-28T07:06:05;16.35;;;9.20;;
20480;SDS011;10399;50.754;3.366;2023-02-28T07:08:34;18.00;;;9.20;;
20480;SDS011;10399;50.754;3.366;2023-02-28T07:11:11;15.82;;;9.60;;
20480;SDS011;10399;50.754;3.366;2023-02-28T07:13:39;15.45;;;8.90;;
20480;SDS011;10399;50.754;3.366;2023-02-28T07:16:10;22.95;;;9.18;;
20480;SDS011;10399;50.754;3.366;2023-02-28T07:18:37;15.45;;;8.73;;
20480;SDS011;10399;50.754;3.366;2023-02-28T07:21:08;17.85;;;8.68;;
20480;SDS011;10399;50.754;3.366;2023-02-28T07:23:37;19.52;;;9.15;;
20480;SDS011;10399;50.754;3.366;2023-02-28T07:26:12;20.33;;;9.60;;
20480;SDS011;10399;50.754;3.366;2023-02-28T07:28:42;19.48;;;10.32;;
20480;SDS011;10399;50.754;3.366;2023-02-28T07:31:14;18.70;;;9.95;;
20480;SDS011;10399;50.754;3.366;2023-02-28T07:33:42;20.88;;;9.70;;
20480;SDS011;10399;50.754;3.366;2023-02-28T07:36:10;19.70;;;9.40;;
20480;SDS011;10399;50.754;3.366;2023-02-28T07:38:45;16.95;;;8.93;;
20480;SDS011;10399;50.754;3.366;2023-02-28T07:41:17;23.67;;;9.75;;
20480;SDS011;10399;50.754;3.366;2023-02-28T07:43:46;19.80;;;9.40;;
20480;SDS011;10399;50.754;3.366;2023-02-28T07:46:14;17.35;;;9.50;;
20480;SDS011;10399;50.754;3.366;2023-02-28T07:48:43;20.75;;;9.50;;
20480;SDS011;10399;50.754;3.366;2023-02-28T07:51:12;16.65;;;9.20;;
20480;SDS011;10399;50.754;3.366;2023-02-28T07:53:39;20.02;;;9.60;;
20480;SDS011;10399;50.754;3.366;2023-02-28T07:56:06;18.15;;;9.57;;
20480;SDS011;10399;50.754;3.366;2023-02-28T07:58:33;15.27;;;8.73;;
20480;SDS011;10399;50.754;3.366;2023-02-28T08:01:08;21.00;;;9.02;;
20480;SDS011;10399;50.754;3.366;2023-02-28T08:03:36;15.40;;;8.57;;
20480;SDS011;10399;50.754;3.366;2023-02-28T08:06:05;18.02;;;8.98;;
20480;SDS011;10399;50.754;3.366;2023-02-28T08:08:34;19.50;;;8.70;;
20480;SDS011;10399;50.754;3.366;2023-02-28T08:11:02;14.60;;;8.88;;
20480;SDS011;10399;50.754;3.366;2023-02-28T08:13:29;19.15;;;8.20;;
20480;SDS011;10399;50.754;3.366;2023-02-28T08:15:57;17.77;;;9.43;;
20480;SDS011;10399;50.754;3.366;2023-02-28T08:18:28;15.13;;;9.10;;
20480;SDS011;10399;50.754;3.366;2023-02-28T08:20:54;19.42;;;8.80;;
20480;SDS011;10399;50.754;3.366;2023-02-28T08:23:22;19.17;;;8.98;;
20480;SDS011;10399;50.754;3.366;2023-02-28T08:25:56;30.67;;;9.05;;
20480;SDS011;10399;50.754;3.366;2023-02-28T08:28:23;14.18;;;8.52;;
20480;SDS011;10399;50.754;3.366;2023-02-28T08:30:52;19.00;;;8.80;;
20480;SDS011;10399;50.754;3.366;2023-02-28T08:33:20;15.35;;;8.70;;
20480;SDS011;10399;50.754;3.366;2023-02-28T08:35:51;13.10;;;8.27;;
20480;SDS011;10399;50.754;3.366;2023-02-28T08:38:24;22.50;;;9.55;;
20480;SDS011;10399;50.754;3.366;2023-02-28T08:41:01;22.13;;;8.50;;
20480;SDS011;10399;50.754;3.366;2023-02-28T08:43:35;14.63;;;8.07;;
20480;SDS011;10399;50.754;3.366;2023-02-28T08:46:03;23.40;;;8.88;;
20480;SDS011;10399;50.754;3.366;2023-02-28T08:48:31;25.85;;;8.75;;
20480;SDS011;10399;50.754;3.366;2023-02-28T08:53:35;11.80;;;7.93;;
20480;SDS011;10399;50.754;3.366;2023-02-28T08:56:06;15.35;;;7.78;;
20480;SDS011;10399;50.754;3.366;2023-02-28T08:58:40;14.07;;;8.38;;
20480;SDS011;10399;50.754;3.366;2023-02-28T09:01:11;16.13;;;7.78;;
20480;SDS011;10399;50.754;3.366;2023-02-28T09:03:46;16.42;;;8.45;;
20480;SDS011;10399;50.754;3.366;2023-02-28T09:06:18;20.48;;;8.93;;
20480;SDS011;10399;50.754;3.366;2023-02-28T09:08:46;11.55;;;7.53;;
20480;SDS011;10399;50.754;3.366;2023-02-28T09:11:15;17.40;;;7.82;;
20480;SDS011;10399;50.754;3.366;2023-02-28T09:13:45;16.92;;;7.68;;
20480;SDS011;10399;50.754;3.366;2023-02-28T09:16:13;15.98;;;8.45;;
20480;SDS011;10399;50.754;3.366;2023-02-28T09:18:42;14.68;;;7.90;;
20480;SDS011;10399;50.754;3.366;2023-02-28T09:21:14;22.38;;;7.78;;
20480;SDS011;10399;50.754;3.366;2023-02-28T09:23:44;17.92;;;7.47;;
20480;SDS011;10399;50.754;3.366;2023-02-28T09:26:19;12.05;;;7.63;;
20480;SDS011;10399;50.754;3.366;2023-02-28T09:28:54;13.65;;;8.23;;
20480;SDS011;10399;50.754;3.366;2023-02-28T09:31:24;13.32;;;7.07;;
20480;SDS011;10399;50.754;3.366;2023-02-28T09:33:53;13.85;;;6.78;;
20480;SDS011;10399;50.754;3.366;2023-02-28T09:36:23;18.30;;;6.97;;
20480;SDS011;10399;50.754;3.366;2023-02-28T09:39:06;16.00;;;9.23;;
20480;SDS011;10399;50.754;3.366;2023-02-28T09:41:42;12.55;;;6.32;;
20480;SDS011;10399;50.754;3.366;2023-02-28T09:44:39;15.50;;;7.43;;
20480;SDS011;10399;50.754;3.366;2023-02-28T09:47:14;15.02;;;6.50;;
20480;SDS011;10399;50.754;3.366;2023-02-28T09:49:53;9.95;;;5.88;;
20480;SDS011;10399;50.754;3.366;2023-02-28T09:52:28;13.25;;;6.35;;
20480;SDS011;10399;50.754;3.366;2023-02-28T09:55:00;8.82;;;5.68;;
20480;SDS011;10399;50.754;3.366;2023-02-28T09:57:47;8.18;;;5.38;;
20480;SDS011;10399;50.754;3.366;2023-02-28T10:06:12;10.50;;;4.32;;
20480;SDS011;10399;50.754;3.366;2023-02-28T10:08:56;8.50;;;4.07;;
20480;SDS011;10399;50.754;3.366;2023-02-28T10:11:28;9.93;;;4.75;;
20480;SDS011;10399;50.754;3.366;2023-02-28T10:14:06;10.63;;;4.45;;
20480;SDS011;10399;50.754;3.366;2023-02-28T10:17:11;8.55;;;4.20;;
20480;SDS011;10399;50.754;3.366;2023-02-28T10:22:47;6.75;;;4.15;;
20480;SDS011;10399;50.754;3.366;2023-02-28T10:25:21;6.70;;;3.53;;
20480;SDS011;10399;50.754;3.366;2023-02-28T10:27:54;8.68;;;4.30;;
20480;SDS011;10399;50.754;3.366;2023-02-28T10:30:27;8.50;;;3.78;;
20480;SDS011;10399;50.754;3.366;2023-02-28T10:32:56;8.75;;;3.72;;
20480;SDS011;10399;50.754;3.366;2023-02-28T10:35:24;7.47;;;4.50;;
20480;SDS011;10399;50.754;3.366;2023-02-28T10:37:56;8.43;;;3.88;;
20480;SDS011;10399;50.754;3.366;2023-02-28T10:40:34;7.22;;;4.13;;
20480;SDS011;10399;50.754;3.366;2023-02-28T10:43:03;9.10;;;4.13;;
20480;SDS011;10399;50.754;3.366;2023-02-28T10:46:01;7.78;;;3.72;;
20480;SDS011;10399;50.754;3.366;2023-02-28T10:48:38;5.60;;;3.60;;
20480;SDS011;10399;50.754;3.366;2023-02-28T10:51:13;6.35;;;4.32;;
20480;SDS011;10399;50.754;3.366;2023-02-28T10:53:52;4.55;;;3.35;;
20480;SDS011;10399;50.754;3.366;2023-02-28T10:56:28;12.27;;;4.18;;
20480;SDS011;10399;50.754;3.366;2023-02-28T10:59:22;7.22;;;4.05;;
20480;SDS011;10399;50.754;3.366;2023-02-28T11:01:57;4.85;;;3.50;;
20480;SDS011;10399;50.754;3.366;2023-02-28T11:07:22;8.63;;;4.05;;
20480;SDS011;10399;50.754;3.366;2023-02-28T11:09:55;7.18;;;3.83;;
20480;SDS011;10399;50.754;3.366;2023-02-28T11:12:35;7.97;;;4.13;;
20480;SDS011;10399;50.754;3.366;2023-02-28T11:15:26;6.70;;;3.38;;
20480;SDS011;10399;50.754;3.366;2023-02-28T11:20:28;6.70;;;2.90;;
20480;SDS011;10399;50.754;3.366;2023-02-28T11:22:58;6.13;;;2.85;;
20480;SDS011;10399;50.754;3.366;2023-02-28T11:25:30;4.70;;;2.80;;
20480;SDS011;10399;50.754;3.366;2023-02-28T11:28:03;4.93;;;2.60;;
20480;SDS011;10399;50.754;3.366;2023-02-28T11:30:37;6.85;;;2.63;;
20480;SDS011;10399;50.754;3.366;2023-02-28T11:36:12;7.60;;;3.45;;
20480;SDS011;10399;50.754;3.366;2023-02-28T11:38:53;4.18;;;2.63;;
20480;SDS011;10399;50.754;3.366;2023-02-28T11:41:42;3.13;;;2.78;;
20480;SDS011;10399;50.754;3.366;2023-02-28T11:47:32;4.22;;;2.58;;
20480;SDS011;10399;50.754;3.366;2023-02-28T11:50:04;4.25;;;2.70;;
20480;SDS011;10399;50.754;3.366;2023-02-28T12:03:42;7.88;;;2.72;;
20480;SDS011;10399;50.754;3.366;2023-02-28T12:06:21;4.93;;;3.20;;
20480;SDS011;10399;50.754;3.366;2023-02-28T12:17:44;4.90;;;1.92;;
20480;SDS011;10399;50.754;3.366;2023-02-28T12:28:56;3.25;;;2.20;;
20480;SDS011;10399;50.754;3.366;2023-02-28T12:31:36;2.85;;;2.40;;
20480;SDS011;10399;50.754;3.366;2023-02-28T12:34:17;3.88;;;2.45;;
20480;SDS011;10399;50.754;3.366;2023-02-28T12:36:49;8.15;;;2.60;;
20480;SDS011;10399;50.754;3.366;2023-02-28T12:39:27;9.70;;;2.42;;
20480;SDS011;10399;50.754;3.366;2023-02-28T12:42:17;3.92;;;2.55;;
20480;SDS011;10399;50.754;3.366;2023-02-28T12:44:54;7.18;;;2.45;;
20480;SDS011;10399;50.754;3.366;2023-02-28T12:47:27;3.10;;;2.28;;
20480;SDS011;10399;50.754;3.366;2023-02-28T12:49:57;3.08;;;2.15;;
20480;SDS011;10399;50.754;3.366;2023-02-28T12:52:40;3.00;;;2.20;;
20480;SDS011;10399;50.754;3.366;2023-02-28T12:55:33;3.47;;;2.22;;
20480;SDS011;10399;50.754;3.366;2023-02-28T13:01:04;3.28;;;1.98;;
20480;SDS011;10399;50.754;3.366;2023-02-28T13:07:23;2.60;;;2.28;;
20480;SDS011;10399;50.754;3.366;2023-02-28T13:10:02;2.55;;;2.28;;
20480;SDS011;10399;50.754;3.366;2023-02-28T13:12:34;3.85;;;2.40;;
20480;SDS011;10399;50.754;3.366;2023-02-28T13:17:42;7.05;;;2.42;;
20480;SDS011;10399;50.754;3.366;2023-02-28T13:20:16;2.97;;;2.20;;
20480;SDS011;10399;50.754;3.366;2023-02-28T13:22:51;4.55;;;2.47;;
20480;SDS011;10399;50.754;3.366;2023-02-28T13:27:50;3.70;;;1.90;;
20480;SDS011;10399;50.754;3.366;2023-02-28T13:33:35;4.55;;;2.40;;
20480;SDS011;10399;50.754;3.366;2023-02-28T13:38:44;3.47;;;2.20;;
20480;SDS011;10399;50.754;3.366;2023-02-28T13:49:19;4.95;;;2.45;;
20480;SDS011;10399;50.754;3.366;2023-02-28T14:11:31;5.32;;;2.13;;
20480;SDS011;10399;50.754;3.366;2023-02-28T14:14:00;5.90;;;2.22;;
20480;SDS011;10399;50.754;3.366;2023-02-28T14:16:41;3.72;;;2.28;;
20480;SDS011;10399;50.754;3.366;2023-02-28T14:19:21;4.10;;;2.40;;
20480;SDS011;10399;50.754;3.366;2023-02-28T14:24:51;3.97;;;2.60;;
20480;SDS011;10399;50.754;3.366;2023-02-28T14:36:39;4.47;;;3.00;;
20480;SDS011;10399;50.754;3.366;2023-02-28T14:39:15;6.60;;;2.80;;
20480;SDS011;10399;50.754;3.366;2023-02-28T14:41:45;4.50;;;2.78;;
20480;SDS011;10399;50.754;3.366;2023-02-28T14:44:16;5.60;;;2.47;;
20480;SDS011;10399;50.754;3.366;2023-02-28T14:46:51;4.15;;;2.58;;
20480;SDS011;10399;50.754;3.366;2023-02-28T14:51:50;4.22;;;2.90;;
20480;SDS011;10399;50.754;3.366;2023-02-28T14:54:53;5.65;;;3.15;;
20480;SDS011;10399;50.754;3.366;2023-02-28T14:57:29;8.07;;;2.70;;
20480;SDS011;10399;50.754;3.366;2023-02-28T15:00:12;4.15;;;2.67;;
20480;SDS011;10399;50.754;3.366;2023-02-28T15:02:42;4.93;;;2.92;;
20480;SDS011;10399;50.754;3.366;2023-02-28T15:07:39;4.32;;;2.83;;
20480;SDS011;10399;50.754;3.366;2023-02-28T15:10:25;10.68;;;3.25;;
20480;SDS011;10399;50.754;3.366;2023-02-28T15:12:58;4.80;;;2.80;;
20480;SDS011;10399;50.754;3.366;2023-02-28T15:21:17;4.10;;;2.50;;
20480;SDS011;10399;50.754;3.366;2023-02-28T15:24:31;5.25;;;3.03;;
20480;SDS011;10399;50.754;3.366;2023-02-28T15:26:51;3.70;;;2.90;;
20480;SDS011;10399;50.754;3.366;2023-02-28T15:29:24;4.30;;;2.90;;
20480;SDS011;10399;50.754;3.366;2023-02-28T15:32:00;4.18;;;2.53;;
20480;SDS011;10399;50.754;3.366;2023-02-28T15:34:36;6.65;;;3.08;;
20480;SDS011;10399;50.754;3.366;2023-02-28T15:39:58;4.20;;;3.03;;
20480;SDS011;10399;50.754;3.366;2023-02-28T15:43:05;4.35;;;3.08;;
20480;SDS011;10399;50.754;3.366;2023-02-28T15:45:46;6.75;;;3.30;;
20480;SDS011;10399;50.754;3.366;2023-02-28T15:48:43;7.53;;;3.42;;
20480;SDS011;10399;50.754;3.366;2023-02-28T15:51:24;4.80;;;2.90;;
20480;SDS011;10399;50.754;3.366;2023-02-28T15:54:01;4.75;;;2.80;;
20480;SDS011;10399;50.754;3.366;2023-02-28T15:56:56;5.20;;;3.08;;
20480;SDS011;10399;50.754;3.366;2023-02-28T15:59:23;4.82;;;3.55;;
20480;SDS011;10399;50.754;3.366;2023-02-28T16:02:12;6.75;;;3.45;;
20480;SDS011;10399;50.754;3.366;2023-02-28T16:07:23;6.32;;;2.88;;
20480;SDS011;10399;50.754;3.366;2023-02-28T16:09:51;9.52;;;3.05;;
20480;SDS011;10399;50.754;3.366;2023-02-28T16:12:19;3.60;;;3.15;;
20480;SDS011;10399;50.754;3.366;2023-02-28T16:14:54;4.13;;;2.97;;
20480;SDS011;10399;50.754;3.366;2023-02-28T16:17:27;4.78;;;3.20;;
20480;SDS011;10399;50.754;3.366;2023-02-28T16:19:58;6.43;;;3.13;;
20480;SDS011;10399;50.754;3.366;2023-02-28T16:22:25;4.28;;;3.00;;
20480;SDS011;10399;50.754;3.366;2023-02-28T16:24:52;5.78;;;3.42;;
20480;SDS011;10399;50.754;3.366;2023-02-28T16:29:46;6.60;;;3.15;;
20480;SDS011;10399;50.754;3.366;2023-02-28T16:32:15;6.90;;;3.78;;
20480;SDS011;10399;50.754;3.366;2023-02-28T16:34:43;4.72;;;3.15;;
20480;SDS011;10399;50.754;3.366;2023-02-28T16:37:13;3.50;;;3.10;;
20480;SDS011;10399;50.754;3.366;2023-02-28T16:39:42;4.40;;;3.25;;
20480;SDS011;10399;50.754;3.366;2023-02-28T16:42:20;4.78;;;3.33;;
20480;SDS011;10399;50.754;3.366;2023-02-28T16:44:49;5.10;;;3.10;;
20480;SDS011;10399;50.754;3.366;2023-02-28T16:47:16;6.30;;;3.33;;
20480;SDS011;10399;50.754;3.366;2023-02-28T16:49:44;5.18;;;3.50;;
20480;SDS011;10399;50.754;3.366;2023-02-28T16:52:11;7.07;;;3.55;;
20480;SDS011;10399;50.754;3.366;2023-02-28T16:54:38;5.20;;;3.33;;
20480;SDS011;10399;50.754;3.366;2023-02-28T16:57:14;5.30;;;3.88;;
20480;SDS011;10399;50.754;3.366;2023-02-28T16:59:47;5.07;;;3.55;;
20480;SDS011;10399;50.754;3.366;2023-02-28T17:02:18;9.25;;;3.97;;
20480;SDS011;10399;50.754;3.366;2023-02-28T17:04:45;4.85;;;3.72;;
20480;SDS011;10399;50.754;3.366;2023-02-28T17:07:14;5.78;;;3.78;;
20480;SDS011;10399;50.754;3.366;2023-02-28T17:09:44;5.90;;;3.50;;
20480;SDS011;10399;50.754;3.366;2023-02-28T17:12:12;10.57;;;3.83;;
20480;SDS011;10399;50.754;3.366;2023-02-28T17:14:39;9.85;;;3.65;;
20480;SDS011;10399;50.754;3.366;2023-02-28T17:17:06;11.55;;;4.10;;
20480;SDS011;10399;50.754;3.366;2023-02-28T17:19:33;9.05;;;4.28;;
20480;SDS011;10399;50.754;3.366;2023-02-28T17:22:04;4.57;;;3.65;;
20480;SDS011;10399;50.754;3.366;2023-02-28T17:24:31;7.05;;;3.63;;
20480;SDS011;10399;50.754;3.366;2023-02-28T17:26:58;7.18;;;3.47;;
20480;SDS011;10399;50.754;3.366;2023-02-28T17:29:25;9.48;;;4.18;;
20480;SDS011;10399;50.754;3.366;2023-02-28T17:31:52;9.80;;;4.35;;
20480;SDS011;10399;50.754;3.366;2023-02-28T17:34:19;7.57;;;4.10;;
20480;SDS011;10399;50.754;3.366;2023-02-28T17:36:47;14.43;;;3.80;;
20480;SDS011;10399;50.754;3.366;2023-02-28T17:39:16;8.80;;;4.38;;
20480;SDS011;10399;50.754;3.366;2023-02-28T17:41:53;8.45;;;4.13;;
20480;SDS011;10399;50.754;3.366;2023-02-28T17:44:21;6.47;;;4.40;;
20480;SDS011;10399;50.754;3.366;2023-02-28T17:46:50;13.55;;;6.95;;
20480;SDS011;10399;50.754;3.366;2023-02-28T17:49:20;10.20;;;6.15;;